sensor_id;sensor_type;location;lat;lon;timestamp;pressure;altitude;pressure_sealevel;temperature;humidity
46111;BME280;31849;55.992;37.252;2023-04-27T00:04:27;98343.00;;;8.32;61.09
46111;BME280;31849;55.992;37.252;2023-04-27T00:09:31;98356.81;;;8.33;61.54
46111;BME280;31849;55.992;37.252;2023-04-27T00:14:36;98359.44;;;8.30;61.40
46111;BME280;31849;55.992;37.252;2023-04-27T00:19:39;98366.34;;;8.31;60.40
46111;BME280;31849;55.992;37.252;2023-04-27T00:24:43;98368.28;;;8.10;61.27
46111;BME280;31849;55.992;37.252;2023-04-27T00:29:48;98351.00;;;8.09;61.36
46111;BME280;31849;55.992;37.252;2023-04-27T00:34:52;98368.28;;;8.10;60.28
46111;BME280;31849;55.992;37.252;2023-04-27T00:39:55;98367.50;;;8.03;61.09
46111;BME280;31849;55.992;37.252;2023-04-27T00:45:00;98370.97;;;7.99;60.67
46111;BME280;31849;55.992;37.252;2023-04-27T00:50:05;98382.31;;;7.86;61.48
46111;BME280;31849;55.992;37.252;2023-04-27T00:55:09;98391.19;;;7.51;61.31
46111;BME280;31849;55.992;37.252;2023-04-27T01:00:15;98390.44;;;7.38;62.18
46111;BME280;31849;55.992;37.252;2023-04-27T01:05:18;98391.25;;;7.43;61.76
46111;BME280;31849;55.992;37.252;2023-04-27T01:10:23;98392.09;;;7.48;61.54
46111;BME280;31849;55.992;37.252;2023-04-27T01:15:28;98392.94;;;7.52;61.35
46111;BME280;31849;55.992;37.252;2023-04-27T01:20:32;98397.31;;;7.39;62.19
46111;BME280;31849;55.992;37.252;2023-04-27T01:25:38;98388.69;;;7.40;62.03
46111;BME280;31849;55.992;37.252;2023-04-27T01:30:41;98393.00;;;7.41;60.76
46111;BME280;31849;55.992;37.252;2023-04-27T01:35:45;98393.06;;;7.30;61.37
46111;BME280;31849;55.992;37.252;2023-04-27T01:40:50;98381.88;;;7.28;61.98
46111;BME280;31849;55.992;37.252;2023-04-27T01:45:53;98378.50;;;7.20;62.73
46111;BME280;31849;55.992;37.252;2023-04-27T01:50:57;98377.66;;;7.13;62.14
46111;BME280;31849;55.992;37.252;2023-04-27T01:56:02;98380.28;;;7.09;62.48
46111;BME280;31849;55.992;37.252;2023-04-27T02:01:06;98394.16;;;6.92;62.67
46111;BME280;31849;55.992;37.252;2023-04-27T02:06:10;98409.78;;;6.58;62.73
46111;BME280;31849;55.992;37.252;2023-04-27T02:11:15;98399.41;;;6.67;62.99
46111;BME280;31849;55.992;37.252;2023-04-27T02:16:19;98412.31;;;6.81;62.74
46111;BME280;31849;55.992;37.252;2023-04-27T02:21:22;98397.59;;;6.90;63.20
46111;BME280;31849;55.992;37.252;2023-04-27T02:26:27;98402.69;;;7.05;62.52
46111;BME280;31849;55.992;37.252;2023-04-27T02:31:31;98406.09;;;7.12;62.27
46111;BME280;31849;55.992;37.252;2023-04-27T02:36:34;98423.53;;;6.66;63.30
46111;BME280;31849;55.992;37.252;2023-04-27T02:41:39;98414.88;;;6.78;62.74
46111;BME280;31849;55.992;37.252;2023-04-27T02:46:43;98420.78;;;7.11;62.93
46111;BME280;31849;55.992;37.252;2023-04-27T02:51:46;98431.03;;;7.25;61.69
46111;BME280;31849;55.992;37.252;2023-04-27T02:56:51;98431.72;;;7.50;62.19
46111;BME280;31849;55.992;37.252;2023-04-27T03:01:55;98439.38;;;7.72;62.00
46111;BME280;31849;55.992;37.252;2023-04-27T03:06:58;98432.25;;;7.99;60.94
46111;BME280;31849;55.992;37.252;2023-04-27T03:12:04;98438.91;;;8.24;60.30
46111;BME280;31849;55.992;37.252;2023-04-27T03:17:08;98443.03;;;8.45;60.73
46111;BME280;31849;55.992;37.252;2023-04-27T03:22:11;98446.31;;;8.65;60.28
46111;BME280;31849;55.992;37.252;2023-04-27T03:27:16;98458.28;;;8.75;60.33
46111;BME280;31849;55.992;37.252;2023-04-27T03:32:19;98446.72;;;9.04;59.33
46111;BME280;31849;55.992;37.252;2023-04-27T03:37:23;98459.47;;;9.22;59.14
46111;BME280;31849;55.992;37.252;2023-04-27T03:42:28;98453.59;;;10.73;56.27
46111;BME280;31849;55.992;37.252;2023-04-27T03:47:31;98452.81;;;14.62;47.48
46111;BME280;31849;55.992;37.252;2023-04-27T03:52:35;98461.13;;;18.78;39.65
46111;BME280;31849;55.992;37.252;2023-04-27T03:57:40;98469.44;;;21.65;35.22
46111;BME280;31849;55.992;37.252;2023-04-27T04:02:44;98468.91;;;22.80;33.02
46111;BME280;31849;55.992;37.252;2023-04-27T04:07:48;98483.16;;;23.30;32.40
46111;BME280;31849;55.992;37.252;2023-04-27T04:12:52;98479.81;;;25.32;30.03
46111;BME280;31849;55.992;37.252;2023-04-27T04:17:56;98476.84;;;26.77;27.46
46111;BME280;31849;55.992;37.252;2023-04-27T04:23:00;98482.88;;;28.03;25.90
46111;BME280;31849;55.992;37.252;2023-04-27T04:28:05;98486.13;;;29.32;24.24
46111;BME280;31849;55.992;37.252;2023-04-27T04:33:09;98483.91;;;30.73;22.25
46111;BME280;31849;55.992;37.252;2023-04-27T04:38:13;98492.94;;;31.94;20.97
46111;BME280;31849;55.992;37.252;2023-04-27T04:43:18;98497.22;;;32.87;20.16
46111;BME280;31849;55.992;37.252;2023-04-27T04:48:22;98503.47;;;32.79;20.00
46111;BME280;31849;55.992;37.252;2023-04-27T04:53:26;98500.28;;;32.75;19.88
46111;BME280;31849;55.992;37.252;2023-04-27T04:58:31;98497.88;;;32.15;20.56
46111;BME280;31849;55.992;37.252;2023-04-27T05:03:34;98495.19;;;33.22;19.01
46111;BME280;31849;55.992;37.252;2023-04-27T05:08:38;98501.50;;;33.45;18.15
46111;BME280;31849;55.992;37.252;2023-04-27T05:13:43;98494.47;;;33.36;18.04
46111;BME280;31849;55.992;37.252;2023-04-27T05:18:47;98485.97;;;33.47;17.96
46111;BME280;31849;55.992;37.252;2023-04-27T05:23:51;98498.75;;;33.93;17.72
46111;BME280;31849;55.992;37.252;2023-04-27T05:28:56;98504.69;;;35.19;16.10
46111;BME280;31849;55.992;37.252;2023-04-27T05:33:59;98497.69;;;35.85;15.79
46111;BME280;31849;55.992;37.252;2023-04-27T05:39:03;98497.91;;;38.10;14.45
46111;BME280;31849;55.992;37.252;2023-04-27T05:44:08;98512.44;;;37.40;14.32
46111;BME280;31849;55.992;37.252;2023-04-27T05:49:12;98512.66;;;37.80;13.85
46111;BME280;31849;55.992;37.252;2023-04-27T05:54:16;98513.34;;;38.09;13.37
46111;BME280;31849;55.992;37.252;2023-04-27T05:59:21;98504.44;;;38.42;13.34
46111;BME280;31849;55.992;37.252;2023-04-27T06:04:24;98502.88;;;39.67;12.28
46111;BME280;31849;55.992;37.252;2023-04-27T06:09:29;98504.13;;;39.71;12.61
46111;BME280;31849;55.992;37.252;2023-04-27T06:14:35;98498.63;;;39.26;12.58
46111;BME280;31849;55.992;37.252;2023-04-27T06:19:39;98506.00;;;40.16;12.00
46111;BME280;31849;55.992;37.252;2023-04-27T06:24:43;98510.53;;;40.29;11.83
46111;BME280;31849;55.992;37.252;2023-04-27T06:29:49;98519.28;;;39.99;11.85
46111;BME280;31849;55.992;37.252;2023-04-27T06:34:53;98524.66;;;39.53;11.92
46111;BME280;31849;55.992;37.252;2023-04-27T06:39:56;98527.50;;;37.91;12.94
46111;BME280;31849;55.992;37.252;2023-04-27T06:45:01;98529.06;;;38.21;12.95
46111;BME280;31849;55.992;37.252;2023-04-27T06:50:07;98528.94;;;37.87;13.02
46111;BME280;31849;55.992;37.252;2023-04-27T06:55:10;98526.66;;;38.66;11.97
46111;BME280;31849;55.992;37.252;2023-04-27T07:00:18;98517.16;;;39.49;11.70
46111;BME280;31849;55.992;37.252;2023-04-27T07:05:22;98523.22;;;39.51;12.03
46111;BME280;31849;55.992;37.252;2023-04-27T07:10:26;98523.81;;;41.01;10.91
46111;BME280;31849;55.992;37.252;2023-04-27T07:15:31;98528.13;;;39.02;11.81
46111;BME280;31849;55.992;37.252;2023-04-27T07:20:36;98519.63;;;37.61;12.52
46111;BME280;31849;55.992;37.252;2023-04-27T07:25:40;98522.03;;;37.78;12.73
46111;BME280;31849;55.992;37.252;2023-04-27T07:30:46;98519.50;;;37.35;12.50
46111;BME280;31849;55.992;37.252;2023-04-27T07:35:49;98525.47;;;38.07;12.54
46111;BME280;31849;55.992;37.252;2023-04-27T07:40:56;98516.38;;;38.55;12.46
46111;BME280;31849;55.992;37.252;2023-04-27T07:46:01;98532.13;;;38.11;11.91
46111;BME280;31849;55.992;37.252;2023-04-27T07:51:05;98527.84;;;38.23;12.67
46111;BME280;31849;55.992;37.252;2023-04-27T07:56:09;98523.00;;;39.46;11.63
46111;BME280;31849;55.992;37.252;2023-04-27T08:01:14;98528.94;;;39.02;11.12
46111;BME280;31849;55.992;37.252;2023-04-27T08:06:21;98529.03;;;36.31;12.52
46111;BME280;31849;55.992;37.252;2023-04-27T08:11:25;98536.47;;;35.92;13.57
46111;BME280;31849;55.992;37.252;2023-04-27T08:16:30;98518.75;;;34.39;14.09
46111;BME280;31849;55.992;37.252;2023-04-27T08:21:34;98519.44;;;32.56;15.06
46111;BME280;31849;55.992;37.252;2023-04-27T08:26:39;98519.91;;;33.25;14.86
46111;BME280;31849;55.992;37.252;2023-04-27T08:31:45;98515.00;;;31.63;16.14
46111;BME280;31849;55.992;37.252;2023-04-27T08:36:48;98504.31;;;30.66;17.79
46111;BME280;31849;55.992;37.252;2023-04-27T08:41:52;98508.88;;;30.02;17.77
46111;BME280;31849;55.992;37.252;2023-04-27T08:46:57;98507.94;;;29.27;18.60
46111;BME280;31849;55.992;37.252;2023-04-27T08:52:01;98515.66;;;29.40;18.11
46111;BME280;31849;55.992;37.252;2023-04-27T08:57:08;98501.72;;;29.64;18.29
46111;BME280;31849;55.992;37.252;2023-04-27T09:02:20;98498.63;;;28.25;19.11
46111;BME280;31849;55.992;37.252;2023-04-27T09:07:24;98490.50;;;27.36;20.17
46111;BME280;31849;55.992;37.252;2023-04-27T09:12:29;98490.06;;;26.25;21.63
46111;BME280;31849;55.992;37.252;2023-04-27T09:17:34;98501.81;;;25.34;23.34
46111;BME280;31849;55.992;37.252;2023-04-27T09:22:43;98494.91;;;25.31;23.94
46111;BME280;31849;55.992;37.252;2023-04-27T09:27:47;98483.91;;;26.13;22.44
46111;BME280;31849;55.992;37.252;2023-04-27T09:32:53;98494.81;;;26.10;22.98
46111;BME280;31849;55.992;37.252;2023-04-27T09:37:59;98492.78;;;25.80;23.37
46111;BME280;31849;55.992;37.252;2023-04-27T09:43:03;98490.22;;;26.12;22.99
46111;BME280;31849;55.992;37.252;2023-04-27T09:48:08;98496.38;;;25.47;23.43
46111;BME280;31849;55.992;37.252;2023-04-27T09:53:14;98482.84;;;25.93;23.85
46111;BME280;31849;55.992;37.252;2023-04-27T09:58:33;98487.25;;;26.27;22.81
46111;BME280;31849;55.992;37.252;2023-04-27T10:03:50;98472.56;;;26.00;22.41
46111;BME280;31849;55.992;37.252;2023-04-27T10:08:59;98484.78;;;25.91;22.85
46111;BME280;31849;55.992;37.252;2023-04-27T10:14:08;98494.53;;;25.47;23.35
46111;BME280;31849;55.992;37.252;2023-04-27T10:19:13;98484.59;;;24.57;24.92
46111;BME280;31849;55.992;37.252;2023-04-27T10:24:17;98485.03;;;23.91;25.20
46111;BME280;31849;55.992;37.252;2023-04-27T10:29:21;98481.03;;;24.34;24.97
46111;BME280;31849;55.992;37.252;2023-04-27T10:34:27;98477.94;;;24.16;25.58
46111;BME280;31849;55.992;37.252;2023-04-27T10:39:34;98493.66;;;23.69;26.54
46111;BME280;31849;55.992;37.252;2023-04-27T10:44:53;98510.63;;;23.16;27.76
46111;BME280;31849;55.992;37.252;2023-04-27T10:50:00;98507.31;;;22.87;28.39
46111;BME280;31849;55.992;37.252;2023-04-27T10:55:13;98484.31;;;23.00;27.86
46111;BME280;31849;55.992;37.252;2023-04-27T11:00:24;98492.25;;;23.52;27.50
46111;BME280;31849;55.992;37.252;2023-04-27T11:05:29;98492.91;;;23.17;28.13
46111;BME280;31849;55.992;37.252;2023-04-27T11:10:37;98485.63;;;23.21;28.13
46111;BME280;31849;55.992;37.252;2023-04-27T11:15:42;98515.91;;;22.91;27.78
46111;BME280;31849;55.992;37.252;2023-04-27T11:20:49;98495.03;;;23.38;27.29
46111;BME280;31849;55.992;37.252;2023-04-27T11:25:53;98503.28;;;23.46;27.52
46111;BME280;31849;55.992;37.252;2023-04-27T11:30:57;98491.00;;;23.82;26.88
46111;BME280;31849;55.992;37.252;2023-04-27T11:36:03;98489.66;;;23.63;27.44
46111;BME280;31849;55.992;37.252;2023-04-27T11:41:07;98500.97;;;23.15;28.18
46111;BME280;31849;55.992;37.252;2023-04-27T11:46:11;98504.63;;;22.74;28.66
46111;BME280;31849;55.992;37.252;2023-04-27T11:51:16;98495.97;;;22.85;28.47
46111;BME280;31849;55.992;37.252;2023-04-27T11:56:20;98496.69;;;22.74;28.41
46111;BME280;31849;55.992;37.252;2023-04-27T12:01:24;98496.91;;;22.84;28.43
46111;BME280;31849;55.992;37.252;2023-04-27T12:06:40;98502.19;;;22.58;28.80
46111;BME280;31849;55.992;37.252;2023-04-27T12:11:43;98505.94;;;22.41;28.95
46111;BME280;31849;55.992;37.252;2023-04-27T12:16:47;98500.56;;;22.16;29.42
46111;BME280;31849;55.992;37.252;2023-04-27T12:21:52;98507.91;;;21.98;30.16
46111;BME280;31849;55.992;37.252;2023-04-27T12:26:56;98488.59;;;21.68;30.35
46111;BME280;31849;55.992;37.252;2023-04-27T12:32:00;98508.00;;;21.96;30.13
46111;BME280;31849;55.992;37.252;2023-04-27T12:37:05;98501.91;;;22.08;29.43
46111;BME280;31849;55.992;37.252;2023-04-27T12:42:08;98488.59;;;21.95;29.67
46111;BME280;31849;55.992;37.252;2023-04-27T12:47:12;98490.91;;;21.60;28.57
46111;BME280;31849;55.992;37.252;2023-04-27T12:52:37;98489.59;;;21.53;29.09
46111;BME280;31849;55.992;37.252;2023-04-27T12:57:40;98484.50;;;21.77;28.58
46111;BME280;31849;55.992;37.252;2023-04-27T13:02:44;98490.97;;;21.44;29.43
46111;BME280;31849;55.992;37.252;2023-04-27T13:07:49;98480.31;;;21.60;29.58
46111;BME280;31849;55.992;37.252;2023-04-27T13:12:53;98477.72;;;21.73;29.10
46111;BME280;31849;55.992;37.252;2023-04-27T13:17:57;98486.56;;;21.86;28.66
46111;BME280;31849;55.992;37.252;2023-04-27T13:23:03;98476.97;;;21.98;28.82
46111;BME280;31849;55.992;37.252;2023-04-27T13:28:07;98471.50;;;21.74;29.16
46111;BME280;31849;55.992;37.252;2023-04-27T13:33:10;98488.50;;;21.55;29.43
46111;BME280;31849;55.992;37.252;2023-04-27T13:38:26;98476.25;;;21.11;29.93
46111;BME280;31849;55.992;37.252;2023-04-27T13:43:29;98491.72;;;21.03;30.34
46111;BME280;31849;55.992;37.252;2023-04-27T13:48:33;98476.63;;;21.34;29.84
46111;BME280;31849;55.992;37.252;2023-04-27T13:53:38;98486.72;;;21.41;29.74
46111;BME280;31849;55.992;37.252;2023-04-27T13:58:42;98488.72;;;21.23;30.41
46111;BME280;31849;55.992;37.252;2023-04-27T14:03:45;98498.25;;;21.26;29.92
46111;BME280;31849;55.992;37.252;2023-04-27T14:08:51;98494.47;;;21.30;29.74
46111;BME280;31849;55.992;37.252;2023-04-27T14:13:56;98497.00;;;21.32;29.68
46111;BME280;31849;55.992;37.252;2023-04-27T14:19:00;98499.00;;;21.42;29.90
46111;BME280;31849;55.992;37.252;2023-04-27T14:24:05;98500.41;;;21.63;30.15
46111;BME280;31849;55.992;37.252;2023-04-27T14:29:09;98486.22;;;21.49;29.86
46111;BME280;31849;55.992;37.252;2023-04-27T14:34:13;98491.81;;;21.44;30.50
46111;BME280;31849;55.992;37.252;2023-04-27T14:39:18;98503.31;;;21.43;30.74
46111;BME280;31849;55.992;37.252;2023-04-27T14:44:22;98503.72;;;21.23;31.06
46111;BME280;31849;55.992;37.252;2023-04-27T14:49:25;98505.78;;;21.03;31.38
46111;BME280;31849;55.992;37.252;2023-04-27T14:54:38;98506.72;;;20.88;32.00
46111;BME280;31849;55.992;37.252;2023-04-27T14:59:51;98511.69;;;20.78;31.73
46111;BME280;31849;55.992;37.252;2023-04-27T15:04:55;98504.81;;;20.90;31.58
46111;BME280;31849;55.992;37.252;2023-04-27T15:10:00;98503.16;;;20.89;31.40
46111;BME280;31849;55.992;37.252;2023-04-27T15:15:06;98493.00;;;20.67;31.77
46111;BME280;31849;55.992;37.252;2023-04-27T15:20:11;98499.06;;;20.83;31.68
46111;BME280;31849;55.992;37.252;2023-04-27T15:25:17;98505.50;;;20.63;31.97
46111;BME280;31849;55.992;37.252;2023-04-27T15:30:20;98502.69;;;20.36;32.16
46111;BME280;31849;55.992;37.252;2023-04-27T15:35:24;98515.44;;;20.13;32.30
46111;BME280;31849;55.992;37.252;2023-04-27T17:12:31;98573.00;;;15.65;40.70
46111;BME280;31849;55.992;37.252;2023-04-27T17:17:35;98571.22;;;15.90;40.56
46111;BME280;31849;55.992;37.252;2023-04-27T17:22:38;98573.88;;;16.12;40.43
46111;BME280;31849;55.992;37.252;2023-04-27T17:27:43;98577.72;;;16.25;40.09
46111;BME280;31849;55.992;37.252;2023-04-27T17:32:47;98574.91;;;16.30;40.23
46111;BME280;31849;55.992;37.252;2023-04-27T17:37:51;98582.44;;;16.39;40.80
46111;BME280;31849;55.992;37.252;2023-04-27T17:42:56;98588.72;;;16.35;41.42
46111;BME280;31849;55.992;37.252;2023-04-27T17:47:59;98589.09;;;16.26;41.75
46111;BME280;31849;55.992;37.252;2023-04-27T17:53:03;98587.22;;;16.06;42.44
46111;BME280;31849;55.992;37.252;2023-04-27T17:58:08;98575.63;;;15.89;43.27
46111;BME280;31849;55.992;37.252;2023-04-27T18:03:12;98589.03;;;15.81;43.71
46111;BME280;31849;55.992;37.252;2023-04-27T18:08:16;98593.78;;;15.70;43.99
46111;BME280;31849;55.992;37.252;2023-04-27T18:13:21;98588.03;;;15.60;44.62
46111;BME280;31849;55.992;37.252;2023-04-27T18:18:25;98585.84;;;15.48;45.17
46111;BME280;31849;55.992;37.252;2023-04-27T18:23:28;98582.91;;;15.34;45.29
46111;BME280;31849;55.992;37.252;2023-04-27T18:28:33;98591.13;;;15.23;45.93
46111;BME280;31849;55.992;37.252;2023-04-27T18:33:39;98585.44;;;15.11;46.25
46111;BME280;31849;55.992;37.252;2023-04-27T18:38:42;98578.69;;;15.04;46.79
46111;BME280;31849;55.992;37.252;2023-04-27T18:43:47;98576.34;;;14.97;46.99
46111;BME280;31849;55.992;37.252;2023-04-27T18:48:51;98584.34;;;14.92;47.19
46111;BME280;31849;55.992;37.252;2023-04-27T18:53:54;98581.50;;;14.73;47.48
46111;BME280;31849;55.992;37.252;2023-04-27T18:58:59;98572.13;;;14.66;47.70
46111;BME280;31849;55.992;37.252;2023-04-27T19:04:03;98571.50;;;14.57;48.48
46111;BME280;31849;55.992;37.252;2023-04-27T19:09:08;98565.63;;;14.51;48.22
46111;BME280;31849;55.992;37.252;2023-04-27T19:14:13;98545.00;;;14.41;49.00
46111;BME280;31849;55.992;37.252;2023-04-27T19:19:17;98558.88;;;14.43;49.08
46111;BME280;31849;55.992;37.252;2023-04-27T19:24:20;98556.22;;;14.45;49.26
46111;BME280;31849;55.992;37.252;2023-04-27T19:29:25;98560.66;;;14.43;49.26
46111;BME280;31849;55.992;37.252;2023-04-27T19:34:29;98545.44;;;14.28;48.91
46111;BME280;31849;55.992;37.252;2023-04-27T19:39:33;98554.81;;;14.35;48.57
46111;BME280;31849;55.992;37.252;2023-04-27T19:44:38;98549.63;;;14.33;49.73
46111;BME280;31849;55.992;37.252;2023-04-27T19:49:41;98553.34;;;14.26;49.13
46111;BME280;31849;55.992;37.252;2023-04-27T19:54:50;98545.59;;;14.23;50.32
46111;BME280;31849;55.992;37.252;2023-04-27T19:59:55;98552.72;;;14.18;49.74
46111;BME280;31849;55.992;37.252;2023-04-27T20:04:59;98540.34;;;14.23;48.24
46111;BME280;31849;55.992;37.252;2023-04-27T20:10:05;98532.63;;;14.20;49.48
46111;BME280;31849;55.992;37.252;2023-04-27T20:15:10;98553.28;;;14.28;49.21
46111;BME280;31849;55.992;37.252;2023-04-27T20:20:14;98560.47;;;14.21;49.48
46111;BME280;31849;55.992;37.252;2023-04-27T20:25:17;98553.88;;;14.09;50.16
46111;BME280;31849;55.992;37.252;2023-04-27T20:30:23;98549.78;;;14.00;48.77
46111;BME280;31849;55.992;37.252;2023-04-27T20:35:28;98559.06;;;13.82;50.76
46111;BME280;31849;55.992;37.252;2023-04-27T20:40:32;98568.94;;;13.71;50.54
46111;BME280;31849;55.992;37.252;2023-04-27T20:45:37;98563.81;;;13.68;51.06
46111;BME280;31849;55.992;37.252;2023-04-27T20:50:41;98562.47;;;13.54;51.04
46111;BME280;31849;55.992;37.252;2023-04-27T20:55:45;98562.28;;;13.61;50.46
46111;BME280;31849;55.992;37.252;2023-04-27T21:00:50;98554.63;;;13.84;50.76
46111;BME280;31849;55.992;37.252;2023-04-27T21:05:53;98573.25;;;14.02;50.31
46111;BME280;31849;55.992;37.252;2023-04-27T21:10:57;98571.53;;;14.01;50.50
46111;BME280;31849;55.992;37.252;2023-04-27T21:16:02;98561.63;;;14.12;50.09
46111;BME280;31849;55.992;37.252;2023-04-27T21:21:06;98556.03;;;14.23;49.79
46111;BME280;31849;55.992;37.252;2023-04-27T21:26:09;98578.69;;;14.24;49.94
46111;BME280;31849;55.992;37.252;2023-04-27T21:31:14;98589.88;;;14.28;49.85
46111;BME280;31849;55.992;37.252;2023-04-27T21:36:21;98565.84;;;14.16;49.75
46111;BME280;31849;55.992;37.252;2023-04-27T21:41:25;98569.13;;;14.23;50.02
46111;BME280;31849;55.992;37.252;2023-04-27T21:46:30;98580.63;;;14.17;50.59
46111;BME280;31849;55.992;37.252;2023-04-27T21:51:33;98586.28;;;14.03;50.75
46111;BME280;31849;55.992;37.252;2023-04-27T21:56:37;98579.47;;;13.98;50.84
46111;BME280;31849;55.992;37.252;2023-04-27T22:01:42;98569.31;;;13.88;51.02
46111;BME280;31849;55.992;37.252;2023-04-27T22:06:46;98577.69;;;13.70;51.64
46111;BME280;31849;55.992;37.252;2023-04-27T22:11:50;98574.38;;;13.65;51.52
46111;BME280;31849;55.992;37.252;2023-04-27T22:16:55;98577.97;;;13.61;51.64
46111;BME280;31849;55.992;37.252;2023-04-27T22:22:02;98573.75;;;13.55;51.78
46111;BME280;31849;55.992;37.252;2023-04-27T22:27:05;98562.75;;;13.45;51.85
46111;BME280;31849;55.992;37.252;2023-04-27T22:32:10;98565.47;;;13.41;52.23
46111;BME280;31849;55.992;37.252;2023-04-27T22:37:14;98560.47;;;13.31;52.33
46111;BME280;31849;55.992;37.252;2023-04-27T22:42:18;98565.09;;;13.22;52.48
46111;BME280;31849;55.992;37.252;2023-04-27T22:47:23;98558.34;;;13.14;52.84
46111;BME280;31849;55.992;37.252;2023-04-27T22:52:27;98560.38;;;13.03;52.94
46111;BME280;31849;55.992;37.252;2023-04-27T22:57:34;98563.06;;;13.00;52.92
46111;BME280;31849;55.992;37.252;2023-04-27T23:02:39;98557.16;;;12.93;53.24
46111;BME280;31849;55.992;37.252;2023-04-27T23:07:43;98547.75;;;12.88;53.62
46111;BME280;31849;55.992;37.252;2023-04-27T23:12:47;98544.34;;;12.86;53.24
46111;BME280;31849;55.992;37.252;2023-04-27T23:17:53;98548.75;;;12.82;53.70
46111;BME280;31849;55.992;37.252;2023-04-27T23:22:56;98548.03;;;12.77;53.84
46111;BME280;31849;55.992;37.252;2023-04-27T23:28:00;98544.59;;;12.75;54.18
46111;BME280;31849;55.992;37.252;2023-04-27T23:33:05;98535.03;;;12.75;54.42
46111;BME280;31849;55.992;37.252;2023-04-27T23:38:08;98537.69;;;12.74;53.99
46111;BME280;31849;55.992;37.252;2023-04-27T23:43:12;98538.56;;;12.73;53.88
46111;BME280;31849;55.992;37.252;2023-04-27T23:48:17;98534.25;;;12.72;54.07
46111;BME280;31849;55.992;37.252;2023-04-27T23:53:21;98524.81;;;12.66;54.28
46111;BME280;31849;55.992;37.252;2023-04-27T23:58:25;98515.38;;;12.62;54.19
